Greenwood, Indiana
Current Conditions -  °F | °C
As of 7:23 PM on Thursday 18 Dec 2014 (Local Time) from KIND Reporting Station
Overcast Overcast  
Wind Chill: 21°   Ceiling: 1700
Heat Index: 26°   Visibility: 10mi
Dew Point: 21°   Wind: 5mph
Humidity: 81%   Direction: 290°WNW
Pressure: 30.23"   Gusts: NA
Location:  39.61°N, 86.11°W
Report Text: KIND 190023Z 29004KT 10SM BKN017 OVC060 M03/M06 A3023 RMK AO2 T10331061
Loading
Personal Weather Stations






























Interactive Weather Map New forecast layout! Learn more

10-Day Weather Forecast

Advertisements
Track Severe Weather on mobile